createdAt,value
2023-01-19T00:00:25.677Z,0.78
2023-01-19T00:04:27.031Z,0.92
2023-01-19T00:08:28.363Z,0.88
2023-01-19T00:12:31.095Z,0.60
2023-01-19T00:16:32.458Z,0.31
2023-01-19T00:20:33.840Z,0.19
2023-01-19T00:24:35.259Z,0.07
2023-01-19T00:28:37.981Z,0.17
2023-01-19T00:32:39.317Z,-0.04
2023-01-19T00:36:40.912Z,-0.13
2023-01-19T00:40:42.276Z,0.17
2023-01-19T00:44:44.983Z,0.09
2023-01-19T00:48:46.322Z,-0.11
2023-01-19T00:52:47.677Z,-0.03
2023-01-19T00:56:49.015Z,0.29
2023-01-19T01:00:53.133Z,0.47
2023-01-19T01:04:54.591Z,0.44
2023-01-19T01:08:55.939Z,0.19
2023-01-19T01:12:58.027Z,0.39
2023-01-19T01:17:19.990Z,0.13
2023-01-19T01:21:21.325Z,0.13
2023-01-19T01:25:23.235Z,0.31
2023-01-19T01:29:24.613Z,0.64
2023-01-19T01:33:39.924Z,0.74
2023-01-19T01:37:42.965Z,0.69
2023-01-19T01:41:44.314Z,0.57
2023-01-19T01:45:46.427Z,0.50
2023-01-19T01:49:51.407Z,0.49
2023-01-19T01:53:57.367Z,0.50
2023-01-19T01:58:00.536Z,0.68
2023-01-19T02:02:04.609Z,0.65
2023-01-19T02:06:08.193Z,0.56
2023-01-19T02:10:10.008Z,0.45
2023-01-19T02:14:11.367Z,0.62
2023-01-19T02:18:12.903Z,0.42
2023-01-19T02:22:18.373Z,0.38
2023-01-19T02:26:22.246Z,0.63
2023-01-19T02:30:23.693Z,0.58
2023-01-19T02:34:25.175Z,0.46
2023-01-19T02:38:27.705Z,0.50
2023-01-19T02:42:32.119Z,0.43
2023-01-19T02:46:33.599Z,0.40
2023-01-19T02:50:39.787Z,0.44
2023-01-19T02:54:46.314Z,0.50
2023-01-19T02:58:53.339Z,0.38
2023-01-19T03:03:01.951Z,0.59
2023-01-19T03:07:08.464Z,0.33
2023-01-19T03:11:11.381Z,0.49
2023-01-19T03:15:18.271Z,0.30
2023-01-19T03:19:21.697Z,0.34
2023-01-19T03:23:25.959Z,0.40
2023-01-19T03:27:29.496Z,0.45
2023-01-19T03:31:33.066Z,0.48
2023-01-19T03:35:35.720Z,0.57
2023-01-19T03:39:37.457Z,0.49
2023-01-19T03:43:39.857Z,0.46
2023-01-19T03:47:42.630Z,0.38
2023-01-19T03:51:44.037Z,0.54
2023-01-19T03:55:46.507Z,0.56
2023-01-19T03:59:47.840Z,0.48
2023-01-19T04:03:50.593Z,0.38
2023-01-19T04:07:52.247Z,0.36
2023-01-19T04:11:53.644Z,0.17
2023-01-19T04:15:55.020Z,0.04
2023-01-19T04:19:57.769Z,-0.09
2023-01-19T04:23:59.147Z,-0.19
2023-01-19T04:28:00.569Z,-0.33
2023-01-19T04:32:01.917Z,-0.46
2023-01-19T04:36:05.112Z,-0.61
2023-01-19T04:40:07.305Z,-0.88
2023-01-19T04:44:08.726Z,-1.10
2023-01-19T04:48:10.278Z,-1.21
2023-01-19T04:52:12.990Z,-1.21
2023-01-19T04:56:14.351Z,-1.27
2023-01-19T05:00:16.449Z,-1.50
2023-01-19T05:04:17.803Z,-1.56
2023-01-19T05:08:20.848Z,-1.51
2023-01-19T05:12:22.243Z,-1.66
2023-01-19T05:16:23.616Z,-1.81
2023-01-19T05:20:25.370Z,-1.90
2023-01-19T05:24:28.102Z,-1.87
2023-01-19T05:28:29.761Z,-1.96
2023-01-19T05:32:31.116Z,-2.09
2023-01-19T05:36:32.693Z,-2.15
2023-01-19T05:40:35.427Z,-2.05
2023-01-19T05:44:36.799Z,-1.95
2023-01-19T05:48:38.178Z,-2.18
2023-01-19T05:52:39.535Z,-2.24
2023-01-19T05:56:42.582Z,-2.36
2023-01-19T06:00:43.924Z,-2.45
2023-01-19T06:04:45.270Z,-2.50
2023-01-19T06:08:46.622Z,-2.59
2023-01-19T06:12:49.768Z,-2.64
2023-01-19T06:16:51.375Z,-2.67
2023-01-19T06:20:53.095Z,-2.73
2023-01-19T06:24:54.438Z,-2.84
2023-01-19T06:28:57.264Z,-2.82
2023-01-19T06:32:58.842Z,-2.91
2023-01-19T06:37:00.346Z,-2.94
2023-01-19T06:41:01.699Z,-3.02
2023-01-19T06:45:04.721Z,-3.07
2023-01-19T06:49:06.319Z,-3.09
2023-01-19T06:53:07.698Z,-3.13
2023-01-19T06:57:09.285Z,-3.08
2023-01-19T07:01:12.109Z,-3.21
2023-01-19T07:05:13.492Z,-2.94
2023-01-19T07:09:16.838Z,-3.11
2023-01-19T07:13:18.330Z,-3.09
2023-01-19T07:17:21.048Z,-2.91
2023-01-19T07:21:24.403Z,-2.90
2023-01-19T07:25:26.084Z,-2.88
2023-01-19T07:29:27.712Z,-2.79
2023-01-19T07:33:30.571Z,-2.67
2023-01-19T07:37:31.921Z,-2.52
2023-01-19T07:41:33.291Z,-2.28
2023-01-19T07:45:35.336Z,-2.13
2023-01-19T07:49:38.165Z,-1.86
2023-01-19T07:53:39.824Z,-1.77
2023-01-19T07:57:41.152Z,-1.33
2023-01-19T08:01:42.608Z,-1.18
2023-01-19T08:05:45.377Z,-1.00
2023-01-19T08:09:46.809Z,-1.13
2023-01-19T08:13:48.169Z,-0.89
2023-01-19T08:17:54.394Z,-0.66
2023-01-19T08:21:57.359Z,-0.76
2023-01-19T08:25:58.766Z,-0.74
2023-01-19T08:30:00.148Z,-0.70
2023-01-19T08:34:01.667Z,-0.53
2023-01-19T08:38:04.818Z,-0.44
2023-01-19T08:42:06.192Z,-0.35
2023-01-19T08:46:07.659Z,-0.15
2023-01-19T08:50:09.884Z,-0.19
2023-01-19T08:54:12.611Z,0.12
2023-01-19T08:58:13.952Z,-0.15
2023-01-19T09:02:15.332Z,0.27
2023-01-19T09:06:17.036Z,0.52
2023-01-19T09:10:19.934Z,0.30
2023-01-19T09:14:21.287Z,0.53
2023-01-19T09:18:22.874Z,0.66
2023-01-19T09:22:24.312Z,0.59
2023-01-19T09:26:27.053Z,0.57
2023-01-19T09:30:28.480Z,0.75
2023-01-19T09:34:29.822Z,0.85
2023-01-19T09:38:31.195Z,0.73
2023-01-19T09:42:41.582Z,0.71
2023-01-19T09:46:43.044Z,1.03
2023-01-19T09:50:44.561Z,0.92
2023-01-19T09:54:48.839Z,0.97
2023-01-19T09:58:51.947Z,0.85
2023-01-19T10:02:56.567Z,0.80
2023-01-19T10:07:08.689Z,1.05
2023-01-19T10:11:17.492Z,1.10
2023-01-19T10:15:26.234Z,1.10
2023-01-19T10:19:29.943Z,1.18
2023-01-19T10:23:40.661Z,1.14
2023-01-19T10:27:42.022Z,1.06
2023-01-19T10:31:45.954Z,1.07
2023-01-19T10:35:47.366Z,0.98
2023-01-19T10:39:52.629Z,1.16
2023-01-19T10:43:59.449Z,1.36
2023-01-19T10:48:06.184Z,1.23
2023-01-19T10:52:08.799Z,1.35
2023-01-19T10:56:12.310Z,1.54
2023-01-19T11:00:29.293Z,1.78
2023-01-19T11:04:32.130Z,1.71
2023-01-19T11:08:33.521Z,2.03
2023-01-19T11:12:39.400Z,2.12
2023-01-19T11:16:41.299Z,2.36
2023-01-19T11:20:49.413Z,2.50
2023-01-19T11:24:50.758Z,2.57
2023-01-19T11:28:53.171Z,2.51
2023-01-19T11:32:54.570Z,2.60
2023-01-19T11:36:58.154Z,2.60
2023-01-19T11:40:59.715Z,2.76
2023-01-19T11:45:03.190Z,2.80
2023-01-19T11:49:05.724Z,2.72
2023-01-19T11:53:14.870Z,2.50
2023-01-19T11:57:16.939Z,2.30
2023-01-19T12:01:21.505Z,2.16
2023-01-19T12:05:25.989Z,2.17
2023-01-19T12:09:31.836Z,2.17
2023-01-19T12:13:33.882Z,2.08
2023-01-19T12:17:37.630Z,2.01
2023-01-19T12:21:38.954Z,2.01
2023-01-19T12:25:52.715Z,1.98
2023-01-19T12:29:55.441Z,2.12
2023-01-19T12:34:19.981Z,2.38
2023-01-19T12:38:33.319Z,2.32
2023-01-19T12:42:36.102Z,2.34
2023-01-19T12:46:37.920Z,2.54
2023-01-19T12:50:39.341Z,2.66
2023-01-19T12:54:43.438Z,2.71
2023-01-19T12:58:49.117Z,2.89
2023-01-19T13:02:51.690Z,2.87
2023-01-19T13:07:06.094Z,2.85
2023-01-19T13:11:20.601Z,2.93
2023-01-19T13:15:33.755Z,2.73
2023-01-19T13:19:41.750Z,2.72
2023-01-19T13:23:52.136Z,2.69
2023-01-19T13:27:54.024Z,2.59
2023-01-19T13:31:57.452Z,2.44
2023-01-19T13:35:58.969Z,2.55
2023-01-19T13:40:00.984Z,2.58
2023-01-19T13:44:07.060Z,2.56
2023-01-19T13:48:15.641Z,2.50
2023-01-19T13:52:20.726Z,2.33
2023-01-19T13:56:22.765Z,2.39
2023-01-19T14:00:25.206Z,2.32
2023-01-19T14:04:29.027Z,2.38
2023-01-19T14:08:30.382Z,2.18
2023-01-19T14:12:32.047Z,2.23
2023-01-19T14:16:33.474Z,2.13
2023-01-19T14:20:36.252Z,2.16
2023-01-19T14:24:37.594Z,2.02
2023-01-19T14:28:43.471Z,1.88
2023-01-19T14:32:45.353Z,2.06
2023-01-19T14:36:50.595Z,2.00
2023-01-19T14:40:51.967Z,2.01
2023-01-19T14:44:54.428Z,1.81
2023-01-19T14:49:00.858Z,1.96
2023-01-19T14:53:04.478Z,2.12
2023-01-19T14:57:10.766Z,1.91
2023-01-19T15:01:12.196Z,1.86
2023-01-19T15:05:14.199Z,2.07
2023-01-19T15:09:16.946Z,1.88
2023-01-19T15:13:20.381Z,1.83
2023-01-19T15:17:21.920Z,1.84
2023-01-19T15:21:23.318Z,1.95
2023-01-19T15:25:26.084Z,1.96
2023-01-19T15:29:27.465Z,1.72
2023-01-19T15:33:29.442Z,1.72
2023-01-19T15:37:30.801Z,1.58
2023-01-19T15:41:33.600Z,1.62
2023-01-19T15:45:35.893Z,1.63
2023-01-19T15:49:37.245Z,1.53
2023-01-19T15:53:39.821Z,1.44
2023-01-19T15:57:42.559Z,1.36
2023-01-19T16:01:44.023Z,1.18
2023-01-19T16:05:45.446Z,1.16
2023-01-19T16:09:46.793Z,1.12
2023-01-19T16:13:49.530Z,1.08
2023-01-19T16:17:50.930Z,0.95
2023-01-19T16:21:52.298Z,0.86
2023-01-19T16:25:58.401Z,0.86
2023-01-19T16:30:01.275Z,1.02
2023-01-19T16:34:02.768Z,0.98
2023-01-19T16:38:04.135Z,1.06
2023-01-19T16:42:05.673Z,0.96
2023-01-19T16:46:16.741Z,0.85
2023-01-19T16:50:18.240Z,0.84
2023-01-19T16:54:20.871Z,0.83
2023-01-19T16:58:22.358Z,0.82
2023-01-19T17:02:25.150Z,0.76
2023-01-19T17:06:26.755Z,0.66
2023-01-19T17:10:28.120Z,0.66
2023-01-19T17:14:29.491Z,0.60
2023-01-19T17:18:33.768Z,0.62
2023-01-19T17:22:35.118Z,0.63
2023-01-19T17:26:36.480Z,0.76
2023-01-19T17:30:37.880Z,0.67
2023-01-19T17:34:40.693Z,0.71
2023-01-19T17:38:42.355Z,0.97
2023-01-19T17:42:43.737Z,1.09
2023-01-19T17:46:45.067Z,0.96
2023-01-19T17:50:47.762Z,0.92
2023-01-19T17:54:49.107Z,0.90
2023-01-19T17:58:50.595Z,0.84
2023-01-19T18:02:52.080Z,1.03
2023-01-19T18:06:54.847Z,0.94
2023-01-19T18:10:56.659Z,0.93
2023-01-19T18:14:58.018Z,1.02
2023-01-19T18:18:59.466Z,1.07
2023-01-19T18:23:02.167Z,1.20
2023-01-19T18:27:03.602Z,1.15
2023-01-19T18:31:06.478Z,1.07
2023-01-19T18:35:08.358Z,1.06
2023-01-19T18:39:11.082Z,1.02
2023-01-19T18:43:12.557Z,0.99
2023-01-19T18:47:13.876Z,1.00
2023-01-19T18:51:16.038Z,0.94
2023-01-19T18:55:18.787Z,0.97
2023-01-19T18:59:20.145Z,0.85
2023-01-19T19:03:21.716Z,0.87
2023-01-19T19:07:23.281Z,0.95
2023-01-19T19:11:26.723Z,0.98
2023-01-19T19:15:28.127Z,0.98
2023-01-19T19:19:29.484Z,0.85
2023-01-19T19:23:30.892Z,0.81
2023-01-19T19:27:33.595Z,0.70
2023-01-19T19:31:34.983Z,0.90
2023-01-19T19:35:36.412Z,0.70
2023-01-19T19:39:37.776Z,0.63
2023-01-19T19:43:40.604Z,0.55
2023-01-19T19:47:41.947Z,0.38
2023-01-19T19:51:43.309Z,0.34
2023-01-19T19:55:44.733Z,0.35
2023-01-19T19:59:47.433Z,0.38
2023-01-19T20:03:49.335Z,0.15
2023-01-19T20:07:50.674Z,0.44
2023-01-19T20:11:52.045Z,0.28
2023-01-19T20:15:54.839Z,0.16
2023-01-19T20:19:56.214Z,0.03
2023-01-19T20:23:59.569Z,-0.10
2023-01-19T20:28:00.911Z,0.03
2023-01-19T20:32:03.654Z,-0.08
2023-01-19T20:36:05.159Z,-0.11
2023-01-19T20:40:06.615Z,-0.12
2023-01-19T20:44:08.013Z,-0.09
2023-01-19T20:48:10.748Z,-0.09
2023-01-19T20:52:12.112Z,-0.10
2023-01-19T20:56:14.696Z,-0.17
2023-01-19T21:00:16.219Z,-0.22
2023-01-19T21:04:19.002Z,-0.15
2023-01-19T21:08:20.322Z,-0.19
2023-01-19T21:12:21.683Z,-0.29
2023-01-19T21:16:23.563Z,-0.34
2023-01-19T21:20:26.416Z,-0.31
2023-01-19T21:24:27.915Z,-0.38
2023-01-19T21:28:31.083Z,-0.41
2023-01-19T21:32:32.493Z,-0.45
2023-01-19T21:36:35.226Z,-0.36
2023-01-19T21:40:36.732Z,-0.27
2023-01-19T21:44:38.084Z,-0.19
2023-01-19T21:48:39.464Z,-0.18
2023-01-19T21:52:42.219Z,-0.18
2023-01-19T21:56:43.604Z,-0.30
2023-01-19T22:00:44.949Z,-0.26
2023-01-19T22:04:46.298Z,-0.24
2023-01-19T22:08:49.015Z,0.08
2023-01-19T22:12:50.382Z,-0.09
2023-01-19T22:16:51.792Z,-0.22
2023-01-19T22:20:53.264Z,-0.22
2023-01-19T22:24:55.965Z,-0.17
2023-01-19T22:28:58.722Z,-0.20
2023-01-19T22:33:00.100Z,-0.20
2023-01-19T22:37:01.512Z,-0.21
2023-01-19T22:41:11.987Z,-0.24
2023-01-19T22:45:13.675Z,-0.16
2023-01-19T22:49:16.051Z,-0.04
2023-01-19T22:53:17.467Z,-0.14
2023-01-19T22:57:20.196Z,-0.16
2023-01-19T23:01:22.541Z,-0.22
2023-01-19T23:05:23.957Z,-0.18
2023-01-19T23:09:25.350Z,-0.16
2023-01-19T23:13:28.074Z,-0.01
2023-01-19T23:17:29.418Z,-0.09
2023-01-19T23:21:31.510Z,-0.16
2023-01-19T23:25:32.883Z,-0.16
2023-01-19T23:29:35.846Z,-0.12
2023-01-19T23:33:37.242Z,-0.03
2023-01-19T23:37:38.626Z,-0.05
2023-01-19T23:41:39.978Z,-0.03
2023-01-19T23:45:42.704Z,-0.15
2023-01-19T23:49:44.073Z,-0.20
2023-01-19T23:53:45.976Z,-0.17
2023-01-19T23:57:47.376Z,-0.28
